Sao Jose de Ribamar, Brazil
Current Conditions -  °F | °C
As of 5:00 PM on Tuesday 21 Oct 2014 (Local Time) from SBSL Reporting Station
Few Clouds Few Clouds  
Wind Chill: 84°   Ceiling: Unl
Heat Index: 87°   Visibility: 6mi
Dew Point: 68°   Wind: 17mph
Humidity: 58%   Direction: 30°NNE
Pressure: 29.8"   Gusts: NA
Location:  2.56°S, 44.05°W
Report Text: SBSL 212000Z 03015KT 9999 FEW025 29/20 Q1009
Loading
Personal Weather Stations






























Interactive Weather Map
Tropical Storm Tracking
New forecast layout! Learn more

10-Day Weather Forecast

Advertisements
Track Severe Weather on mobile